createdAt,value
2022-08-21T00:02:21.586Z,16.50
2022-08-21T00:04:57.081Z,16.50
2022-08-21T00:07:25.282Z,16.40
2022-08-21T00:09:52.846Z,16.40
2022-08-21T00:12:20.381Z,16.30
2022-08-21T00:14:47.762Z,16.30
2022-08-21T00:17:14.844Z,16.30
2022-08-21T00:19:41.831Z,16.10
2022-08-21T00:22:08.786Z,16.00
2022-08-21T00:24:35.677Z,15.90
2022-08-21T00:27:02.681Z,15.80
2022-08-21T00:29:29.641Z,15.90
2022-08-21T00:31:56.761Z,15.80
2022-08-21T00:34:23.725Z,15.80
2022-08-21T00:36:51.209Z,15.90
2022-08-21T00:39:18.149Z,15.90
2022-08-21T00:41:45.414Z,15.90
2022-08-21T00:44:16.312Z,15.90
2022-08-21T00:46:44.335Z,16.00
2022-08-21T00:49:12.815Z,15.90
2022-08-21T00:51:53.056Z,15.80
2022-08-21T00:54:23.425Z,15.70
2022-08-21T00:56:56.045Z,15.60
2022-08-21T00:59:27.571Z,15.60
2022-08-21T01:01:55.035Z,15.60
2022-08-21T01:04:23.309Z,15.50
2022-08-21T01:06:50.299Z,15.50
2022-08-21T01:09:17.287Z,15.50
2022-08-21T01:11:44.778Z,15.40
2022-08-21T01:14:13.978Z,15.40
2022-08-21T01:16:45.782Z,15.40
2022-08-21T01:19:13.456Z,15.30
2022-08-21T01:21:40.422Z,15.20
2022-08-21T01:24:07.533Z,15.40
2022-08-21T01:26:36.890Z,15.30
2022-08-21T01:29:27.103Z,15.40
2022-08-21T01:31:54.295Z,15.30
2022-08-21T01:34:21.385Z,15.10
2022-08-21T01:36:48.993Z,15.20
2022-08-21T01:39:16.681Z,15.10
2022-08-21T01:41:44.083Z,15.20
2022-08-21T01:44:10.986Z,15.20
2022-08-21T01:46:37.979Z,15.20
2022-08-21T01:49:06.185Z,15.20
2022-08-21T01:51:33.520Z,15.20
2022-08-21T01:54:00.507Z,15.10
2022-08-21T01:56:28.925Z,15.10
2022-08-21T01:58:56.249Z,15.00
2022-08-21T02:01:23.411Z,15.00
2022-08-21T02:03:50.575Z,14.90
2022-08-21T02:06:19.106Z,14.80
2022-08-21T02:08:47.301Z,14.70
2022-08-21T02:11:14.689Z,14.60
2022-08-21T02:13:41.686Z,14.50
2022-08-21T02:16:09.075Z,14.70
2022-08-21T02:18:36.280Z,14.80
2022-08-21T02:21:04.375Z,14.80
2022-08-21T02:23:31.930Z,14.70
2022-08-21T02:26:00.085Z,14.80
2022-08-21T02:28:27.949Z,14.70
2022-08-21T02:30:56.799Z,14.70
2022-08-21T02:33:24.382Z,14.60
2022-08-21T02:35:51.571Z,14.50
2022-08-21T02:38:22.465Z,14.40
2022-08-21T02:40:51.356Z,14.30
2022-08-21T02:43:20.149Z,14.30
2022-08-21T02:45:48.526Z,14.30
2022-08-21T02:48:19.566Z,14.40
2022-08-21T02:51:00.954Z,14.30
2022-08-21T02:53:29.718Z,14.40
2022-08-21T02:56:00.137Z,14.40
2022-08-21T02:58:32.268Z,14.40
2022-08-21T03:00:59.526Z,14.30
2022-08-21T03:03:28.005Z,14.30
2022-08-21T03:05:55.143Z,14.10
2022-08-21T03:08:26.489Z,14.20
2022-08-21T03:10:55.703Z,14.20
2022-08-21T03:13:23.238Z,14.20
2022-08-21T03:15:51.269Z,14.00
2022-08-21T03:18:18.757Z,13.90
2022-08-21T03:20:46.240Z,13.90
2022-08-21T03:23:16.787Z,13.90
2022-08-21T03:25:47.326Z,13.90
2022-08-21T03:28:17.317Z,13.80
2022-08-21T03:30:45.801Z,13.80
2022-08-21T03:33:15.389Z,13.80
2022-08-21T03:35:49.881Z,13.60
2022-08-21T03:38:16.834Z,13.60
2022-08-21T03:40:44.422Z,13.70
2022-08-21T03:43:11.649Z,13.50
2022-08-21T03:45:40.077Z,13.70
2022-08-21T03:48:08.377Z,13.80
2022-08-21T03:50:41.263Z,13.70
2022-08-21T03:53:17.581Z,13.50
2022-08-21T03:55:50.946Z,13.50
2022-08-21T03:58:21.072Z,13.40
2022-08-21T04:00:51.058Z,13.40
2022-08-21T04:03:18.762Z,13.40
2022-08-21T04:05:46.871Z,13.40
2022-08-21T04:08:15.580Z,13.50
2022-08-21T04:10:44.693Z,13.60
2022-08-21T04:13:12.245Z,13.60
2022-08-21T04:15:39.694Z,13.60
2022-08-21T04:18:06.873Z,13.50
2022-08-21T04:20:34.252Z,13.50
2022-08-21T04:23:02.462Z,13.50
2022-08-21T04:25:29.774Z,13.40
2022-08-21T04:27:56.781Z,13.30
2022-08-21T04:30:27.999Z,13.40
2022-08-21T04:32:56.656Z,13.20
2022-08-21T04:35:24.761Z,13.20
2022-08-21T04:37:51.971Z,13.30
2022-08-21T04:40:20.708Z,13.30
2022-08-21T04:42:54.545Z,13.20
2022-08-21T04:45:31.566Z,13.20
2022-08-21T04:48:01.121Z,13.30
2022-08-21T04:50:36.733Z,13.40
2022-08-21T04:53:06.477Z,13.50
2022-08-21T04:55:33.693Z,13.60
2022-08-21T04:58:01.125Z,13.50
2022-08-21T05:00:28.522Z,13.60
2022-08-21T05:02:59.979Z,13.60
2022-08-21T05:05:29.966Z,13.60
2022-08-21T05:08:00.138Z,13.60
2022-08-21T05:10:28.703Z,13.60
2022-08-21T05:12:56.687Z,13.60
2022-08-21T05:15:23.774Z,13.70
2022-08-21T05:17:55.431Z,13.80
2022-08-21T05:20:27.734Z,13.90
2022-08-21T05:22:54.740Z,14.00
2022-08-21T05:25:22.364Z,14.00
2022-08-21T05:27:52.055Z,14.10
2022-08-21T05:30:20.888Z,14.20
2022-08-21T05:32:48.745Z,14.30
2022-08-21T05:35:16.301Z,14.40
2022-08-21T05:37:43.209Z,14.40
2022-08-21T05:40:21.670Z,14.50
2022-08-21T05:42:55.095Z,14.60
2022-08-21T05:45:41.633Z,14.70
2022-08-21T05:48:23.774Z,14.70
2022-08-21T05:50:51.672Z,15.00
2022-08-21T05:53:20.492Z,15.10
2022-08-21T05:55:48.030Z,15.30
2022-08-21T05:58:16.990Z,15.50
2022-08-21T06:00:45.007Z,15.70
2022-08-21T06:03:18.432Z,16.00
2022-08-21T06:05:46.659Z,16.40
2022-08-21T06:08:14.814Z,16.50
2022-08-21T06:10:42.160Z,16.70
2022-08-21T06:13:09.187Z,16.90
2022-08-21T06:15:36.289Z,17.10
2022-08-21T06:18:03.756Z,17.40
2022-08-21T06:20:31.460Z,17.50
2022-08-21T06:22:58.880Z,17.70
2022-08-21T06:25:26.349Z,17.80
2022-08-21T06:27:53.736Z,18.10
2022-08-21T06:30:21.051Z,18.30
2022-08-21T06:32:48.065Z,18.20
2022-08-21T06:35:15.042Z,18.40
2022-08-21T06:37:41.929Z,18.40
2022-08-21T06:40:12.487Z,18.70
2022-08-21T06:42:42.789Z,19.00
2022-08-21T06:45:11.194Z,19.10
2022-08-21T06:47:38.400Z,18.80
2022-08-21T06:50:08.598Z,18.90
2022-08-21T06:52:37.085Z,18.60
2022-08-21T06:55:08.070Z,19.00
2022-08-21T06:57:35.254Z,19.20
2022-08-21T07:00:05.653Z,19.10
2022-08-21T07:02:34.761Z,19.20
2022-08-21T07:05:02.220Z,19.50
2022-08-21T07:07:45.405Z,19.60
2022-08-21T07:10:22.342Z,19.60
2022-08-21T07:12:59.126Z,20.00
2022-08-21T07:15:30.350Z,20.30
2022-08-21T07:17:58.437Z,20.30
2022-08-21T07:20:25.666Z,19.90
2022-08-21T07:22:52.690Z,20.40
2022-08-21T07:25:19.673Z,20.50
2022-08-21T07:27:46.618Z,20.80
2022-08-21T07:30:13.834Z,20.70
2022-08-21T07:32:40.948Z,20.90
2022-08-21T07:35:08.399Z,20.80
2022-08-21T07:37:35.590Z,21.10
2022-08-21T07:40:02.704Z,21.10
2022-08-21T07:42:29.674Z,21.50
2022-08-21T07:44:56.859Z,21.20
2022-08-21T07:47:29.515Z,21.60
2022-08-21T07:50:12.359Z,21.50
2022-08-21T07:52:41.078Z,21.80
2022-08-21T07:55:10.129Z,22.10
2022-08-21T07:57:37.429Z,22.40
2022-08-21T08:00:10.809Z,22.60
2022-08-21T08:02:41.698Z,22.70
2022-08-21T08:05:12.271Z,22.80
2022-08-21T08:07:39.964Z,22.50
2022-08-21T08:10:08.521Z,22.30
2022-08-21T08:12:37.703Z,22.70
2022-08-21T08:15:07.017Z,23.00
2022-08-21T08:17:34.258Z,23.30
2022-08-21T08:20:01.908Z,23.30
2022-08-21T08:22:29.024Z,23.20
2022-08-21T08:24:56.794Z,23.70
2022-08-21T08:27:23.789Z,24.20
2022-08-21T08:29:51.050Z,24.10
2022-08-21T08:32:18.272Z,24.40
2022-08-21T08:34:45.325Z,24.70
2022-08-21T08:37:12.306Z,26.00
2022-08-21T08:39:39.752Z,27.00
2022-08-21T08:42:32.647Z,27.40
2022-08-21T08:45:06.018Z,27.10
2022-08-21T08:47:40.421Z,28.30
2022-08-21T08:50:13.774Z,28.30
2022-08-21T08:53:09.711Z,27.10
2022-08-21T08:55:41.151Z,28.30
2022-08-21T08:58:11.567Z,29.50
2022-08-21T09:00:39.587Z,29.60
2022-08-21T09:03:06.537Z,28.40
2022-08-21T09:05:44.861Z,29.00
2022-08-21T09:08:35.984Z,29.70
2022-08-21T09:11:18.719Z,29.90
2022-08-21T09:14:01.951Z,28.80
2022-08-21T09:16:38.366Z,28.60
2022-08-21T09:19:24.692Z,30.00
2022-08-21T09:22:13.986Z,30.40
2022-08-21T09:24:50.042Z,31.10
2022-08-21T09:27:21.909Z,31.50
2022-08-21T09:29:53.797Z,31.70
2022-08-21T09:32:37.136Z,32.40
2022-08-21T09:35:10.109Z,32.30
2022-08-21T09:37:55.974Z,31.70
2022-08-21T09:40:34.594Z,30.80
2022-08-21T09:43:18.142Z,32.10
2022-08-21T09:45:46.955Z,33.00
2022-08-21T09:48:26.934Z,32.80
2022-08-21T09:51:30.674Z,32.60
2022-08-21T09:54:07.067Z,33.70
2022-08-21T09:57:17.123Z,33.10
2022-08-21T09:59:46.214Z,33.40
2022-08-21T10:02:28.205Z,34.20
2022-08-21T10:05:23.904Z,34.40
2022-08-21T10:07:51.547Z,35.90
2022-08-21T10:10:18.371Z,34.10
2022-08-21T10:12:59.809Z,32.40
2022-08-21T10:15:48.460Z,32.00
2022-08-21T10:18:35.679Z,32.10
2022-08-21T10:21:10.193Z,33.90
2022-08-21T10:24:06.082Z,34.60
2022-08-21T10:26:46.942Z,36.00
2022-08-21T10:29:23.819Z,35.10
2022-08-21T10:32:25.819Z,34.30
2022-08-21T10:35:04.396Z,36.00
2022-08-21T10:37:31.361Z,35.60
2022-08-21T10:40:16.681Z,35.90
2022-08-21T10:43:10.427Z,35.90
2022-08-21T10:45:55.342Z,37.50
2022-08-21T10:48:39.593Z,35.50
2022-08-21T10:51:52.149Z,32.70
2022-08-21T10:54:46.224Z,31.50
2022-08-21T10:57:26.034Z,31.70
2022-08-21T11:00:12.179Z,31.10
2022-08-21T11:03:11.759Z,33.10
2022-08-21T11:05:42.300Z,33.90
2022-08-21T11:08:16.784Z,35.10
2022-08-21T11:10:58.036Z,36.10
2022-08-21T11:13:48.885Z,37.20
2022-08-21T11:16:40.793Z,33.60
2022-08-21T11:19:13.672Z,31.00
2022-08-21T11:22:14.265Z,30.20
2022-08-21T11:25:07.232Z,31.10
2022-08-21T11:27:44.009Z,33.00
2022-08-21T11:30:11.771Z,34.70
2022-08-21T11:32:59.801Z,35.00
2022-08-21T11:35:35.984Z,35.40
2022-08-21T11:38:24.159Z,37.00
2022-08-21T11:41:12.590Z,37.70
2022-08-21T11:43:46.907Z,36.40
2022-08-21T11:46:16.944Z,34.80
2022-08-21T11:48:52.610Z,33.40
2022-08-21T11:51:28.231Z,33.70
2022-08-21T11:54:33.675Z,35.50
2022-08-21T11:57:09.289Z,35.30
2022-08-21T11:59:47.974Z,33.90
2022-08-21T12:02:28.981Z,33.20
2022-08-21T12:05:00.431Z,32.20
2022-08-21T12:07:37.937Z,31.00
2022-08-21T12:10:17.123Z,31.00
2022-08-21T12:12:46.071Z,33.40
2022-08-21T12:15:23.237Z,35.30
2022-08-21T12:17:58.429Z,36.90
2022-08-21T12:20:31.032Z,36.00
2022-08-21T12:23:12.896Z,34.80
2022-08-21T12:25:45.418Z,34.60
2022-08-21T12:28:23.878Z,34.50
2022-08-21T12:30:54.906Z,34.60
2022-08-21T12:33:38.441Z,34.00
2022-08-21T12:36:15.178Z,36.20
2022-08-21T12:39:08.168Z,37.30
2022-08-21T12:41:48.157Z,38.40
2022-08-21T12:44:24.199Z,38.90
2022-08-21T12:47:06.455Z,41.10
2022-08-21T12:49:41.909Z,40.80
2022-08-21T12:52:24.494Z,42.20
2022-08-21T12:54:51.662Z,43.60
2022-08-21T12:57:26.382Z,43.70
2022-08-21T12:59:57.158Z,41.10
2022-08-21T13:02:30.901Z,41.90
2022-08-21T13:04:59.209Z,40.40
2022-08-21T13:07:34.441Z,42.60
2022-08-21T13:10:03.857Z,43.80
2022-08-21T13:12:32.748Z,41.30
2022-08-21T13:15:04.336Z,42.60
2022-08-21T13:17:40.880Z,43.50
2022-08-21T13:20:19.572Z,44.50
2022-08-21T13:22:46.627Z,44.00
2022-08-21T13:25:16.448Z,42.80
2022-08-21T13:27:47.529Z,43.30
2022-08-21T13:30:21.166Z,42.30
2022-08-21T13:32:51.348Z,41.80
2022-08-21T13:35:22.797Z,42.60
2022-08-21T13:37:52.729Z,42.10
2022-08-21T13:40:49.580Z,42.00
2022-08-21T13:43:21.247Z,41.10
2022-08-21T13:45:51.203Z,41.30
2022-08-21T13:48:18.770Z,43.10
2022-08-21T13:50:46.189Z,42.60
2022-08-21T13:53:34.310Z,42.20
2022-08-21T13:56:03.712Z,43.80
2022-08-21T13:58:44.251Z,44.00
2022-08-21T14:01:33.929Z,43.50
2022-08-21T14:04:09.309Z,43.60
2022-08-21T14:06:39.257Z,42.60
2022-08-21T14:09:22.002Z,39.10
2022-08-21T14:11:49.953Z,36.70
2022-08-21T14:14:25.097Z,35.50
2022-08-21T14:16:58.959Z,34.20
2022-08-21T14:19:43.002Z,35.70
2022-08-21T14:22:23.238Z,38.90
2022-08-21T14:24:54.959Z,38.40
2022-08-21T14:27:24.409Z,39.00
2022-08-21T14:29:51.598Z,41.20
2022-08-21T14:32:25.184Z,41.90
2022-08-21T14:34:54.805Z,43.20
2022-08-21T14:37:22.766Z,44.10
2022-08-21T14:39:50.099Z,43.50
2022-08-21T14:42:17.425Z,43.80
2022-08-21T14:44:44.526Z,44.40
2022-08-21T14:47:11.718Z,44.50
2022-08-21T14:49:38.814Z,44.50
2022-08-21T14:52:05.802Z,44.50
2022-08-21T14:54:33.630Z,44.60
2022-08-21T14:57:05.888Z,45.30
2022-08-21T14:59:34.058Z,44.70
2022-08-21T15:02:01.779Z,43.10
2022-08-21T15:04:28.818Z,42.80
2022-08-21T15:06:55.738Z,42.60
2022-08-21T15:09:22.786Z,43.40
2022-08-21T15:11:49.834Z,44.10
2022-08-21T15:14:28.448Z,42.50
2022-08-21T15:16:55.588Z,42.40
2022-08-21T15:19:22.689Z,42.90
2022-08-21T15:21:49.843Z,42.20
2022-08-21T15:24:16.906Z,43.70
2022-08-21T15:26:46.069Z,43.80
2022-08-21T15:29:13.232Z,43.50
2022-08-21T15:31:56.086Z,44.30
2022-08-21T15:34:27.305Z,43.20
2022-08-21T15:36:57.156Z,43.80
2022-08-21T15:39:30.968Z,44.20
2022-08-21T15:42:00.006Z,44.00
2022-08-21T15:44:30.681Z,42.90
2022-08-21T15:46:58.078Z,41.80
2022-08-21T15:49:25.136Z,42.20
2022-08-21T15:51:52.165Z,42.60
2022-08-21T15:54:19.154Z,42.30
2022-08-21T15:56:49.470Z,42.00
2022-08-21T15:59:22.709Z,42.60
2022-08-21T16:01:53.566Z,41.20
2022-08-21T16:04:26.943Z,41.00
2022-08-21T16:07:00.977Z,41.90
2022-08-21T16:09:32.326Z,42.30
2022-08-21T16:12:01.145Z,41.80
2022-08-21T16:14:30.386Z,40.40
2022-08-21T16:16:57.870Z,41.40
2022-08-21T16:19:26.359Z,41.90
2022-08-21T16:21:53.285Z,42.00
2022-08-21T16:24:20.208Z,40.60
2022-08-21T16:26:57.545Z,40.30
2022-08-21T16:29:31.016Z,40.40
2022-08-21T16:31:58.053Z,39.40
2022-08-21T16:34:25.499Z,39.40
2022-08-21T16:36:52.863Z,39.60
2022-08-21T16:39:20.056Z,39.90
2022-08-21T16:41:50.843Z,39.40
2022-08-21T16:44:19.410Z,38.50
2022-08-21T16:46:46.546Z,39.20
2022-08-21T16:49:14.545Z,39.70
2022-08-21T16:51:43.518Z,39.20
2022-08-21T16:54:11.173Z,37.90
2022-08-21T16:56:40.393Z,38.10
2022-08-21T16:59:10.514Z,38.40
2022-08-21T17:01:37.851Z,38.40
2022-08-21T17:04:05.763Z,38.60
2022-08-21T17:06:32.858Z,37.90
2022-08-21T17:09:01.269Z,36.30
2022-08-21T17:11:43.706Z,34.90
2022-08-21T17:14:23.321Z,33.50
2022-08-21T17:16:53.082Z,32.50
2022-08-21T17:19:20.758Z,31.20
2022-08-21T17:21:47.838Z,30.50
2022-08-21T17:24:15.657Z,29.90
2022-08-21T17:26:44.892Z,29.70
2022-08-21T17:29:15.233Z,29.20
2022-08-21T17:31:44.282Z,28.60
2022-08-21T17:34:12.045Z,28.10
2022-08-21T17:36:39.006Z,27.70
2022-08-21T17:39:06.030Z,27.20
2022-08-21T17:41:34.208Z,26.90
2022-08-21T17:44:07.115Z,26.50
2022-08-21T17:46:34.146Z,26.50
2022-08-21T17:49:01.560Z,26.20
2022-08-21T17:51:28.773Z,25.90
2022-08-21T17:53:55.649Z,25.50
2022-08-21T17:56:24.735Z,25.40
2022-08-21T17:58:52.236Z,25.00
2022-08-21T18:01:20.446Z,24.90
2022-08-21T18:03:48.179Z,24.70
2022-08-21T18:06:17.907Z,24.50
2022-08-21T18:08:45.874Z,24.20
2022-08-21T18:11:15.993Z,24.10
2022-08-21T18:13:52.134Z,23.90
2022-08-21T18:16:19.560Z,23.70
2022-08-21T18:18:49.095Z,23.40
2022-08-21T18:21:16.419Z,23.20
2022-08-21T18:23:44.962Z,23.00
2022-08-21T18:26:16.205Z,22.90
2022-08-21T18:28:44.278Z,22.70
2022-08-21T18:31:12.114Z,22.50
2022-08-21T18:33:43.722Z,22.40
2022-08-21T18:36:27.179Z,22.20
2022-08-21T18:38:55.145Z,22.00
2022-08-21T18:41:22.596Z,21.80
2022-08-21T18:43:49.849Z,21.60
2022-08-21T18:46:17.459Z,21.50
2022-08-21T18:48:44.524Z,21.30
2022-08-21T18:51:12.364Z,21.20
2022-08-21T18:53:39.649Z,21.10
2022-08-21T18:56:16.059Z,21.10
2022-08-21T18:58:44.461Z,21.10
2022-08-21T19:01:12.461Z,21.10
2022-08-21T19:03:40.092Z,21.00
2022-08-21T19:08:55.893Z,20.80
2022-08-21T19:11:25.076Z,20.70
2022-08-21T19:13:53.610Z,20.50
2022-08-21T19:16:22.480Z,20.40
2022-08-21T19:18:50.186Z,20.30
2022-08-21T19:21:17.116Z,20.20
2022-08-21T19:23:48.190Z,20.20
2022-08-21T19:26:22.121Z,20.10
2022-08-21T19:28:52.659Z,20.00
2022-08-21T19:31:24.862Z,19.90
2022-08-21T19:34:05.769Z,19.80
2022-08-21T19:36:33.821Z,19.80
2022-08-21T19:39:01.470Z,19.70
2022-08-21T19:41:38.618Z,19.60
2022-08-21T19:44:09.697Z,19.50
2022-08-21T19:46:40.331Z,19.50
2022-08-21T19:49:13.230Z,19.50
2022-08-21T19:51:41.138Z,19.40
2022-08-21T19:54:17.434Z,19.40
2022-08-21T19:56:45.313Z,19.30
2022-08-21T19:59:17.702Z,19.20
2022-08-21T20:01:45.089Z,19.20
2022-08-21T20:06:59.328Z,19.30
2022-08-21T20:09:26.245Z,19.10
2022-08-21T20:12:00.638Z,19.00
2022-08-21T20:14:34.124Z,19.00
2022-08-21T20:17:10.540Z,18.90
2022-08-21T20:19:39.685Z,18.90
2022-08-21T20:22:06.972Z,18.80
2022-08-21T20:24:34.171Z,19.00
2022-08-21T20:27:05.995Z,18.90
2022-08-21T20:29:51.077Z,18.80
2022-08-21T20:32:18.093Z,18.70
2022-08-21T20:34:45.969Z,18.50
2022-08-21T20:37:22.142Z,18.50
2022-08-21T20:40:10.296Z,18.40
2022-08-21T20:42:39.125Z,18.30
2022-08-21T20:45:08.381Z,18.20
2022-08-21T20:47:37.011Z,18.10
2022-08-21T20:50:13.762Z,18.10
2022-08-21T20:52:41.819Z,18.00
2022-08-21T20:55:15.214Z,18.10
2022-08-21T20:57:57.293Z,18.10
2022-08-21T21:00:26.234Z,18.20
2022-08-21T21:03:08.433Z,18.30
2022-08-21T21:05:50.406Z,18.30
2022-08-21T21:09:02.469Z,18.40
2022-08-21T21:11:38.378Z,18.20
2022-08-21T21:14:24.362Z,18.10
2022-08-21T21:16:56.510Z,18.00
2022-08-21T21:19:42.553Z,18.00
2022-08-21T21:22:25.081Z,18.10
2022-08-21T21:25:14.863Z,17.80
2022-08-21T21:30:41.205Z,17.50
2022-08-21T21:33:16.551Z,17.40
2022-08-21T21:35:59.049Z,17.60
2022-08-21T21:38:37.669Z,17.60
2022-08-21T21:41:28.213Z,17.50
2022-08-21T21:44:13.705Z,17.60
2022-08-21T21:46:48.562Z,17.50
2022-08-21T21:49:40.725Z,17.40
2022-08-21T21:52:21.795Z,17.30
2022-08-21T21:55:01.057Z,17.20
2022-08-21T21:57:39.966Z,17.20
2022-08-21T22:00:20.176Z,17.10
2022-08-21T22:03:08.087Z,17.10
2022-08-21T22:05:46.533Z,17.10
2022-08-21T22:08:54.461Z,17.20
2022-08-21T22:11:36.766Z,17.30
2022-08-21T22:14:10.233Z,17.10
2022-08-21T22:16:38.006Z,17.10
2022-08-21T22:19:13.602Z,17.00
2022-08-21T22:21:48.220Z,17.10
2022-08-21T22:24:35.570Z,17.20
2022-08-21T22:27:08.551Z,17.10
2022-08-21T22:30:06.586Z,17.00
2022-08-21T22:32:45.814Z,17.00
2022-08-21T22:35:19.271Z,16.80
2022-08-21T22:37:50.042Z,16.70
2022-08-21T22:40:30.363Z,16.80
2022-08-21T22:43:07.164Z,16.70
2022-08-21T22:46:10.660Z,16.50
2022-08-21T22:48:53.015Z,16.50
2022-08-21T22:54:30.261Z,16.50
2022-08-21T22:57:07.673Z,16.50
2022-08-21T22:59:52.794Z,16.50
2022-08-21T23:02:42.212Z,16.50
2022-08-21T23:05:20.494Z,16.60
2022-08-21T23:07:49.946Z,16.50
2022-08-21T23:10:26.221Z,16.60
2022-08-21T23:13:09.249Z,16.60
2022-08-21T23:15:50.705Z,16.60
2022-08-21T23:18:28.138Z,16.60
2022-08-21T23:21:16.145Z,16.60
2022-08-21T23:24:22.366Z,16.60
2022-08-21T23:27:23.535Z,16.60
2022-08-21T23:30:18.653Z,16.40
2022-08-21T23:32:54.977Z,16.30
2022-08-21T23:36:06.370Z,16.30
2022-08-21T23:38:54.058Z,16.20
2022-08-21T23:41:34.263Z,16.20
2022-08-21T23:44:11.652Z,16.30
2022-08-21T23:46:47.598Z,16.30
2022-08-21T23:49:36.286Z,16.10
2022-08-21T23:52:35.950Z,16.20
2022-08-21T23:55:18.090Z,16.30
2022-08-21T23:58:18.890Z,16.30
